Time;durP1;ratioP1;P1;durP2;ratioP2;P2;SDS_P1;SDS_P2;PMS_P1;PMS_P2;Temp;Humidity;BMP_temperature;BMP_pressure;BME280_temperature;BME280_humidity;BME280_pressure;Samples;Min_cycle;Max_cycle;Signal;HPM_P1;HPM_P2
2021/08/13 00:01:59;;;;;;;9.70;7.70;;;22.60;99.90;;;;;;5033957;28;20534;-70
2021/08/13 00:04:26;;;;;;;9.40;7.50;;;22.50;99.90;;;;;;5033699;28;20442;-70
2021/08/13 00:06:53;;;;;;;8.37;7.30;;;22.50;99.90;;;;;;5033735;28;20529;-70
2021/08/13 00:09:21;;;;;;;8.00;7.10;;;22.40;99.90;;;;;;5033792;28;20475;-70
2021/08/13 00:11:50;;;;;;;7.60;6.67;;;22.50;99.90;;;;;;5033604;28;20500;-70
2021/08/13 00:14:17;;;;;;;7.90;7.10;;;22.40;99.90;;;;;;5033731;28;20443;-70
2021/08/13 00:16:44;;;;;;;9.30;6.40;;;22.40;99.90;;;;;;5033304;28;20465;-70
2021/08/13 00:19:11;;;;;;;7.10;6.40;;;22.40;99.90;;;;;;5033388;28;20541;-70
2021/08/13 00:21:37;;;;;;;8.60;7.20;;;22.40;99.90;;;;;;5033756;28;20483;-70
2021/08/13 00:24:05;;;;;;;12.80;7.27;;;22.40;99.90;;;;;;5033533;28;20936;-70
2021/08/13 00:26:32;;;;;;;8.10;7.30;;;22.30;99.90;;;;;;5033461;28;20446;-70
2021/08/13 00:29:00;;;;;;;10.67;6.73;;;22.30;99.90;;;;;;5033381;28;20569;-70
2021/08/13 00:31:28;;;;;;;7.60;6.83;;;22.20;99.90;;;;;;5033663;28;20435;-70
2021/08/13 00:33:54;;;;;;;8.47;7.43;;;22.20;99.90;;;;;;5033327;28;20560;-70
2021/08/13 00:36:21;;;;;;;10.87;8.63;;;22.10;99.90;;;;;;5033282;28;20541;-69
2021/08/13 00:38:48;;;;;;;10.50;7.83;;;22.00;99.90;;;;;;5033379;28;20530;-70
2021/08/13 00:41:15;;;;;;;8.03;7.23;;;22.00;99.90;;;;;;5033227;28;20537;-70
2021/08/13 00:43:41;;;;;;;8.97;7.70;;;22.00;99.90;;;;;;5033371;28;20449;-70
2021/08/13 00:46:10;;;;;;;9.07;6.97;;;22.10;99.90;;;;;;5033250;28;20439;-69
2021/08/13 00:48:38;;;;;;;7.20;6.50;;;22.10;99.90;;;;;;5033343;28;20916;-70
2021/08/13 00:51:05;;;;;;;6.50;5.83;;;22.10;99.90;;;;;;5033160;28;20933;-70
2021/08/13 00:53:32;;;;;;;7.07;6.33;;;22.00;99.90;;;;;;5033408;28;20443;-70
2021/08/13 00:55:59;;;;;;;7.50;6.67;;;21.90;99.90;;;;;;5033235;28;20446;-69
2021/08/13 00:58:26;;;;;;;8.60;7.10;;;22.00;99.90;;;;;;5033252;28;20442;-70
2021/08/13 01:00:54;;;;;;;7.27;6.43;;;21.90;99.90;;;;;;5033259;28;20557;-70
2021/08/13 01:03:22;;;;;;;8.07;7.27;;;22.00;99.90;;;;;;5033117;28;20490;-69
2021/08/13 01:05:49;;;;;;;9.13;7.60;;;22.00;99.90;;;;;;5033013;28;20461;-70
2021/08/13 01:08:16;;;;;;;9.20;7.10;;;22.00;99.90;;;;;;5033213;28;20474;-69
2021/08/13 01:10:49;;;;;;;8.00;7.20;;;22.00;99.90;;;;;;5033114;28;21040;-70
2021/08/13 01:13:23;;;;;;;8.57;7.37;;;22.00;99.90;;;;;;5033231;28;20450;-69
2021/08/13 01:15:55;;;;;;;8.63;6.63;;;22.00;99.90;;;;;;5032930;28;20553;-70
2021/08/13 01:18:30;;;;;;;9.60;7.10;;;22.00;99.90;;;;;;5033207;28;20798;-69
2021/08/13 01:21:18;;;;;;;8.43;6.93;;;22.00;99.90;;;;;;5032858;28;20509;-70
2021/08/13 01:23:50;;;;;;;7.07;6.37;;;21.90;99.90;;;;;;5033333;28;20529;-70
2021/08/13 01:26:19;;;;;;;9.90;7.17;;;21.90;99.90;;;;;;5032967;28;20525;-69
2021/08/13 01:28:56;;;;;;;7.27;6.60;;;21.90;99.90;;;;;;5032958;28;20486;-69
2021/08/13 01:31:24;;;;;;;7.97;7.00;;;22.00;99.90;;;;;;5033428;28;20488;-70
2021/08/13 01:33:58;;;;;;;8.00;7.20;;;21.90;99.90;;;;;;5032968;28;20442;-70
2021/08/13 01:36:28;;;;;;;8.67;7.17;;;21.90;99.90;;;;;;5032626;28;20807;-70
2021/08/13 01:39:00;;;;;;;8.37;6.70;;;21.80;99.90;;;;;;5032897;28;20801;-69
2021/08/13 01:41:29;;;;;;;9.87;7.23;;;21.80;99.90;;;;;;5033057;28;20539;-69
2021/08/13 01:43:57;;;;;;;9.00;6.90;;;21.70;99.90;;;;;;5032855;28;20929;-69
2021/08/13 01:46:23;;;;;;;8.73;7.47;;;21.60;99.90;;;;;;5032538;28;20907;-69
2021/08/13 01:48:50;;;;;;;8.90;6.63;;;21.40;99.90;;;;;;5035537;28;20488;-69
2021/08/13 01:51:19;;;;;;;10.10;7.63;;;21.40;99.90;;;;;;5036160;28;20446;-70
2021/08/13 01:53:47;;;;;;;8.27;7.37;;;21.40;99.90;;;;;;5036324;28;20449;-69
2021/08/13 01:56:14;;;;;;;8.07;7.27;;;21.40;99.90;;;;;;5035968;28;20808;-69
2021/08/13 01:58:42;;;;;;;8.63;7.60;;;21.40;99.90;;;;;;5036159;28;20442;-69
2021/08/13 02:01:09;;;;;;;9.43;7.23;;;21.40;99.90;;;;;;5036310;28;20503;-69
2021/08/13 02:03:39;;;;;;;8.83;7.27;;;21.20;99.90;;;;;;5036202;28;20449;-69
2021/08/13 02:06:07;;;;;;;10.90;8.53;;;21.00;99.90;;;;;;5035980;28;20471;-70
2021/08/13 02:08:37;;;;;;;9.07;7.70;;;21.00;99.90;;;;;;5035920;28;20488;-70
2021/08/13 02:11:05;;;;;;;10.20;7.90;;;21.10;99.90;;;;;;5035995;28;20480;-69
2021/08/13 02:13:34;;;;;;;8.40;6.70;;;21.10;99.90;;;;;;5035964;28;20451;-69
2021/08/13 02:16:06;;;;;;;9.13;8.00;;;21.10;99.90;;;;;;5035845;28;20892;-70
2021/08/13 02:18:35;;;;;;;8.50;7.60;;;21.20;99.90;;;;;;5036228;28;20522;-69
2021/08/13 02:21:06;;;;;;;8.87;7.97;;;21.20;99.90;;;;;;5035530;28;20474;-69
2021/08/13 02:23:32;;;;;;;8.80;7.90;;;21.40;99.90;;;;;;5035837;28;20447;-70
2021/08/13 02:26:01;;;;;;;8.53;7.50;;;21.40;99.90;;;;;;5035489;28;20470;-69
2021/08/13 02:28:28;;;;;;;8.67;7.80;;;21.50;99.90;;;;;;5035417;28;20489;-69
2021/08/13 02:30:55;;;;;;;8.77;7.83;;;21.50;99.90;;;;;;5035628;28;20476;-69
2021/08/13 02:33:22;;;;;;;8.70;7.20;;;21.50;99.90;;;;;;5035427;28;20545;-69
2021/08/13 02:35:51;;;;;;;9.00;7.60;;;21.60;99.90;;;;;;5035311;28;20542;-70
2021/08/13 02:38:23;;;;;;;10.30;8.10;;;21.60;99.90;;;;;;5035406;28;20438;-70
2021/08/13 02:40:54;;;;;;;8.33;7.50;;;21.60;99.90;;;;;;5035129;28;20480;-70
2021/08/13 02:43:26;;;;;;;8.50;7.60;;;21.50;99.90;;;;;;5035319;28;20530;-70
2021/08/13 02:45:57;;;;;;;9.00;7.40;;;21.50;99.90;;;;;;5035179;28;20542;-69
2021/08/13 02:48:24;;;;;;;8.43;7.50;;;21.50;99.90;;;;;;5035793;28;20478;-70
2021/08/13 02:50:53;;;;;;;8.10;6.73;;;21.50;99.90;;;;;;5034961;28;20556;-69
2021/08/13 02:53:22;;;;;;;8.30;7.00;;;21.50;99.90;;;;;;5035245;28;20447;-70
2021/08/13 02:55:54;;;;;;;8.13;7.23;;;21.60;99.90;;;;;;5035039;28;20442;-70
2021/08/13 02:58:25;;;;;;;8.57;7.67;;;21.60;99.90;;;;;;5034824;28;20446;-69
2021/08/13 03:00:53;;;;;;;10.10;7.20;;;21.60;99.90;;;;;;5034465;28;20472;-70
2021/08/13 03:03:21;;;;;;;8.77;7.33;;;21.60;99.90;;;;;;5035038;28;20826;-70
2021/08/13 03:05:50;;;;;;;7.90;6.90;;;21.60;99.90;;;;;;5034751;28;20545;-69
2021/08/13 03:08:19;;;;;;;7.90;7.00;;;21.60;99.90;;;;;;5034771;28;20473;-70
2021/08/13 03:10:46;;;;;;;10.13;7.33;;;21.60;99.90;;;;;;5034625;28;20478;-70
2021/08/13 03:13:15;;;;;;;9.47;7.60;;;21.50;99.90;;;;;;5034823;28;20453;-70
2021/08/13 03:15:45;;;;;;;8.40;7.33;;;21.50;99.90;;;;;;5034389;28;20458;-70
2021/08/13 03:18:12;;;;;;;9.40;7.83;;;21.50;99.90;;;;;;5034811;28;20444;-69
2021/08/13 03:20:40;;;;;;;9.03;7.77;;;21.40;99.90;;;;;;5034450;28;21035;-70
2021/08/13 03:23:07;;;;;;;8.83;7.93;;;21.30;99.90;;;;;;5034678;28;20442;-70
2021/08/13 03:25:34;;;;;;;10.70;8.00;;;21.10;99.90;;;;;;5034422;28;20457;-70
2021/08/13 03:28:01;;;;;;;8.30;7.23;;;21.10;99.90;;;;;;5034468;28;20445;-70
2021/08/13 03:30:28;;;;;;;9.20;7.47;;;21.00;99.90;;;;;;5034492;28;20510;-70
2021/08/13 03:32:56;;;;;;;9.10;7.97;;;21.20;99.90;;;;;;5034519;28;20446;-70
2021/08/13 03:35:23;;;;;;;9.00;7.70;;;21.30;99.90;;;;;;5034327;28;20456;-70
2021/08/13 03:37:51;;;;;;;8.97;7.40;;;21.30;99.90;;;;;;5034301;28;20446;-70
2021/08/13 03:40:18;;;;;;;8.27;7.40;;;21.20;99.90;;;;;;5034136;28;20478;-70
2021/08/13 03:42:45;;;;;;;9.63;8.00;;;21.20;99.90;;;;;;5034441;28;20811;-70
2021/08/13 03:45:12;;;;;;;10.40;8.23;;;21.20;99.90;;;;;;5034217;28;20548;-70
2021/08/13 03:47:39;;;;;;;9.70;7.73;;;21.10;99.90;;;;;;5034249;28;20456;-71
2021/08/13 03:50:08;;;;;;;9.47;7.53;;;21.10;99.90;;;;;;5033820;28;20576;-70
2021/08/13 03:52:34;;;;;;;9.60;8.00;;;21.10;99.90;;;;;;5034055;28;20958;-70
2021/08/13 03:55:01;;;;;;;9.33;6.83;;;21.20;99.90;;;;;;5033960;28;20446;-70
2021/08/13 03:57:28;;;;;;;9.57;8.30;;;21.30;99.90;;;;;;5033979;28;20540;-70
2021/08/13 03:59:55;;;;;;;11.20;8.17;;;21.40;99.90;;;;;;5033744;28;20480;-70
2021/08/13 04:02:21;;;;;;;11.03;8.30;;;21.40;99.90;;;;;;5034003;28;20533;-70
2021/08/13 04:04:48;;;;;;;8.60;7.60;;;21.40;99.90;;;;;;5033942;28;20536;-70
2021/08/13 04:07:16;;;;;;;8.90;7.87;;;21.40;99.90;;;;;;5034184;28;20480;-70
2021/08/13 04:09:43;;;;;;;8.43;7.47;;;21.50;99.90;;;;;;5033586;28;20492;-70
2021/08/13 04:12:10;;;;;;;10.90;8.50;;;21.50;99.90;;;;;;5033695;28;20493;-71
2021/08/13 04:14:37;;;;;;;8.43;7.60;;;21.50;99.90;;;;;;5034155;28;20445;-70
2021/08/13 04:17:04;;;;;;;10.23;8.70;;;21.60;99.90;;;;;;5033628;28;20462;-70
2021/08/13 04:19:31;;;;;;;9.37;7.70;;;21.50;99.90;;;;;;5033631;28;21051;-70
2021/08/13 04:21:58;;;;;;;10.20;7.33;;;21.40;99.90;;;;;;5033788;28;20549;-70
2021/08/13 04:24:27;;;;;;;8.93;6.70;;;21.40;99.90;;;;;;5033665;28;20530;-70
2021/08/13 04:26:54;;;;;;;8.40;7.60;;;21.30;99.90;;;;;;5033491;28;20460;-70
2021/08/13 04:29:20;;;;;;;8.67;7.77;;;21.40;99.90;;;;;;5033729;28;20490;-70
2021/08/13 04:31:48;;;;;;;10.47;8.47;;;21.40;99.90;;;;;;5033689;28;20540;-70
2021/08/13 04:34:14;;;;;;;9.90;8.20;;;21.50;99.90;;;;;;5033945;28;20450;-70
2021/08/13 04:36:41;;;;;;;8.43;7.57;;;21.50;99.90;;;;;;5033418;28;20541;-70
2021/08/13 04:39:09;;;;;;;8.23;7.43;;;21.60;99.90;;;;;;5033465;28;20547;-71
2021/08/13 04:41:37;;;;;;;8.13;7.10;;;21.50;99.90;;;;;;5033500;28;20453;-70
2021/08/13 04:44:05;;;;;;;8.40;7.60;;;21.50;99.90;;;;;;5033510;28;20453;-70
2021/08/13 04:46:32;;;;;;;9.10;7.83;;;21.50;99.90;;;;;;5033334;28;20529;-70
2021/08/13 04:48:58;;;;;;;8.83;7.90;;;21.50;99.90;;;;;;5033189;28;20478;-70
2021/08/13 04:51:25;;;;;;;10.73;8.27;;;21.50;99.90;;;;;;5033365;28;20449;-70
2021/08/13 04:53:52;;;;;;;8.10;7.30;;;21.50;99.90;;;;;;5033116;28;20533;-71
2021/08/13 04:56:19;;;;;;;9.27;7.80;;;21.50;99.90;;;;;;5033229;28;20445;-70
2021/08/13 04:58:47;;;;;;;9.23;8.23;;;21.40;99.90;;;;;;5033101;28;20929;-70
2021/08/13 05:01:15;;;;;;;8.90;7.43;;;21.40;99.90;;;;;;5033461;28;20449;-70
2021/08/13 05:03:41;;;;;;;8.10;7.30;;;21.40;99.90;;;;;;5033224;28;20924;-70
2021/08/13 05:06:08;;;;;;;9.77;8.20;;;21.40;99.90;;;;;;5033170;28;20446;-70
2021/08/13 05:08:39;;;;;;;8.73;7.93;;;21.20;99.90;;;;;;5033056;28;20948;-70
2021/08/13 05:11:06;;;;;;;10.10;8.30;;;21.30;99.90;;;;;;5033319;28;20450;-70
2021/08/13 05:13:33;;;;;;;9.93;7.80;;;21.30;99.90;;;;;;5033158;28;20448;-70
2021/08/13 05:16:01;;;;;;;9.90;8.57;;;21.50;99.90;;;;;;5032724;28;21032;-70
2021/08/13 05:18:28;;;;;;;10.30;8.67;;;21.50;99.90;;;;;;5033145;28;20940;-70
2021/08/13 05:20:55;;;;;;;8.40;7.60;;;21.50;99.90;;;;;;5033029;28;20505;-70
2021/08/13 05:23:22;;;;;;;11.13;8.53;;;21.30;99.90;;;;;;5035344;28;20448;-70
2021/08/13 05:25:48;;;;;;;10.10;7.87;;;21.20;99.90;;;;;;5036756;28;20454;-70
2021/08/13 05:28:16;;;;;;;10.60;8.33;;;21.10;99.90;;;;;;5036791;28;20468;-70
2021/08/13 05:30:43;;;;;;;9.03;7.87;;;21.00;99.90;;;;;;5037104;28;20493;-70
2021/08/13 05:33:11;;;;;;;9.20;7.80;;;21.10;99.90;;;;;;5036796;28;20540;-70
2021/08/13 05:35:39;;;;;;;8.50;7.70;;;21.10;99.90;;;;;;5036529;28;20442;-70
2021/08/13 05:38:06;;;;;;;9.33;8.03;;;21.30;99.90;;;;;;5036560;28;20449;-70
2021/08/13 05:40:33;;;;;;;9.77;8.77;;;21.50;99.90;;;;;;5036701;28;20490;-70
2021/08/13 05:43:00;;;;;;;10.20;8.50;;;21.60;99.90;;;;;;5036541;28;20453;-70
2021/08/13 05:45:27;;;;;;;9.20;7.87;;;21.60;99.90;;;;;;5036347;28;20453;-70
2021/08/13 05:47:54;;;;;;;11.07;8.23;;;21.60;99.90;;;;;;5036471;28;20807;-70
2021/08/13 05:50:22;;;;;;;9.63;8.63;;;21.50;99.90;;;;;;5036416;28;20580;-70
2021/08/13 05:52:49;;;;;;;8.63;7.83;;;21.60;99.90;;;;;;5036455;28;20802;-70
2021/08/13 05:55:16;;;;;;;9.67;8.07;;;21.70;99.90;;;;;;5036314;28;20944;-70
2021/08/13 05:57:44;;;;;;;9.40;8.10;;;21.80;99.90;;;;;;5036356;28;20486;-70
2021/08/13 06:00:12;;;;;;;9.47;8.50;;;21.90;99.90;;;;;;5036145;28;20476;-70
2021/08/13 06:02:50;;;;;;;10.53;8.77;;;21.80;99.90;;;;;;5036056;28;20963;-71
2021/08/13 06:05:16;;;;;;;10.10;9.00;;;21.80;99.90;;;;;;5035906;28;20994;-70
2021/08/13 06:07:45;;;;;;;9.37;8.43;;;21.90;99.90;;;;;;5036184;28;20541;-70
2021/08/13 06:10:12;;;;;;;12.97;9.43;;;21.90;99.90;;;;;;5035831;28;20569;-70
2021/08/13 06:12:38;;;;;;;10.47;8.90;;;21.80;99.90;;;;;;5036163;28;20452;-70
2021/08/13 06:15:06;;;;;;;10.80;8.27;;;21.70;99.90;;;;;;5035856;28;21027;-71
2021/08/13 06:17:33;;;;;;;10.00;9.00;;;21.70;99.90;;;;;;5035754;28;20536;-70
2021/08/13 06:20:00;;;;;;;11.17;8.77;;;21.60;99.90;;;;;;5035778;28;21031;-70
2021/08/13 06:22:27;;;;;;;10.33;8.67;;;21.60;99.90;;;;;;5035724;28;20450;-70
2021/08/13 06:24:58;;;;;;;10.10;8.70;;;21.80;99.90;;;;;;5035838;28;20534;-70
2021/08/13 06:27:25;;;;;;;10.50;8.70;;;21.90;99.90;;;;;;5035839;28;20446;-70
2021/08/13 06:29:51;;;;;;;10.93;8.80;;;22.00;99.90;;;;;;5035679;28;20585;-70
2021/08/13 06:32:19;;;;;;;10.03;8.67;;;22.20;99.90;;;;;;5035735;28;20534;-70
2021/08/13 06:34:46;;;;;;;9.50;8.60;;;22.40;99.90;;;;;;5035359;28;20449;-71
2021/08/13 06:37:13;;;;;;;9.83;8.73;;;22.50;99.90;;;;;;5035559;28;20447;-70
2021/08/13 06:39:40;;;;;;;12.33;9.13;;;22.70;99.90;;;;;;5035566;28;20558;-70
2021/08/13 06:42:10;;;;;;;10.33;8.90;;;22.70;99.90;;;;;;5035612;28;20454;-70
2021/08/13 06:44:36;;;;;;;9.40;8.00;;;22.80;99.90;;;;;;5035318;28;20443;-71
2021/08/13 06:47:04;;;;;;;9.83;8.27;;;23.00;99.90;;;;;;5035213;28;20952;-70
2021/08/13 06:49:30;;;;;;;9.47;8.57;;;23.10;99.90;;;;;;5035254;28;21006;-71
2021/08/13 06:51:57;;;;;;;10.67;9.10;;;23.00;99.90;;;;;;5035517;28;20443;-70
2021/08/13 06:54:24;;;;;;;9.30;8.40;;;23.00;99.90;;;;;;5035307;28;20534;-70
2021/08/13 06:56:51;;;;;;;9.73;8.73;;;23.10;99.90;;;;;;5035156;28;20876;-70
2021/08/13 06:59:19;;;;;;;9.37;8.20;;;23.20;99.90;;;;;;5035199;28;20463;-70
2021/08/13 07:01:46;;;;;;;8.87;8.03;;;23.20;99.90;;;;;;5035332;28;20542;-70
2021/08/13 07:04:12;;;;;;;8.70;7.70;;;23.20;99.90;;;;;;5035024;28;20444;-70
2021/08/13 07:06:39;;;;;;;10.83;8.50;;;23.20;99.90;;;;;;5034986;28;20443;-70
2021/08/13 07:09:06;;;;;;;9.37;8.37;;;23.20;99.90;;;;;;5034543;28;20568;-70
2021/08/13 07:11:33;;;;;;;8.53;7.60;;;23.20;99.90;;;;;;5035033;28;20447;-70
2021/08/13 07:14:00;;;;;;;8.90;8.00;;;23.30;99.90;;;;;;5034768;28;20448;-70
2021/08/13 07:16:28;;;;;;;9.67;8.33;;;23.30;99.90;;;;;;5034635;28;20459;-70
2021/08/13 07:18:54;;;;;;;10.57;9.10;;;23.40;99.90;;;;;;5034753;28;20452;-70
2021/08/13 07:21:21;;;;;;;11.40;9.40;;;23.50;99.90;;;;;;5034680;28;20813;-70
2021/08/13 07:23:48;;;;;;;10.67;9.30;;;23.50;99.90;;;;;;5034713;28;20455;-70
2021/08/13 07:26:15;;;;;;;9.57;8.60;;;23.60;99.90;;;;;;5034588;28;20440;-70
2021/08/13 07:28:42;;;;;;;11.03;9.83;;;23.70;99.90;;;;;;5034597;28;20455;-71
2021/08/13 07:31:08;;;;;;;11.20;9.50;;;23.70;99.90;;;;;;5034416;28;20997;-70
2021/08/13 07:33:37;;;;;;;10.57;9.47;;;23.60;99.90;;;;;;5034607;28;20442;-70
2021/08/13 07:36:04;;;;;;;12.23;10.80;;;23.60;99.90;;;;;;5034113;28;20448;-70
2021/08/13 07:38:35;;;;;;;11.67;10.30;;;23.60;99.90;;;;;;5034166;28;20448;-70
2021/08/13 07:41:02;;;;;;;10.70;9.50;;;23.60;99.90;;;;;;5034440;28;20469;-70
2021/08/13 07:43:28;;;;;;;11.27;10.17;;;23.70;99.90;;;;;;5034440;28;20551;-70
2021/08/13 07:45:55;;;;;;;13.30;10.50;;;23.70;99.90;;;;;;5033426;28;20459;-70
2021/08/13 07:48:22;;;;;;;11.40;9.97;;;23.80;99.90;;;;;;5034326;28;20446;-70
2021/08/13 07:50:50;;;;;;;10.70;9.60;;;23.90;99.90;;;;;;5033886;28;20480;-71
2021/08/13 07:53:17;;;;;;;11.77;10.37;;;23.90;99.90;;;;;;5033997;28;20523;-70
2021/08/13 07:55:44;;;;;;;10.80;9.70;;;23.90;99.90;;;;;;5034128;28;20499;-70
2021/08/13 07:58:11;;;;;;;10.43;9.40;;;23.80;99.90;;;;;;5034144;28;20824;-70
2021/08/13 08:00:37;;;;;;;12.33;10.30;;;23.80;99.90;;;;;;5034116;28;20467;-70
2021/08/13 08:03:04;;;;;;;11.03;9.83;;;23.90;99.90;;;;;;5034035;28;20443;-70
2021/08/13 08:05:31;;;;;;;9.63;8.63;;;23.90;99.90;;;;;;5033794;28;20532;-70
2021/08/13 08:07:59;;;;;;;11.33;9.80;;;24.00;99.90;;;;;;5033768;28;21025;-70
2021/08/13 08:10:26;;;;;;;9.10;8.20;;;24.10;99.90;;;;;;5033849;28;20496;-70
2021/08/13 08:12:53;;;;;;;10.40;9.40;;;24.30;99.90;;;;;;5033914;28;20445;-70
2021/08/13 08:15:20;;;;;;;10.23;9.23;;;24.50;99.90;;;;;;5033590;28;20457;-71
2021/08/13 08:17:47;;;;;;;13.20;9.93;;;24.80;99.90;;;;;;5033776;28;20517;-70
2021/08/13 08:20:14;;;;;;;10.40;9.30;;;25.60;99.90;;;;;;5033477;28;20553;-71
2021/08/13 08:22:41;;;;;;;11.53;9.30;;;26.40;99.90;;;;;;5033776;28;20829;-70
2021/08/13 08:25:10;;;;;;;10.77;9.67;;;26.80;99.90;;;;;;5033564;28;20526;-70
2021/08/13 08:27:37;;;;;;;8.90;8.10;;;27.10;99.90;;;;;;5033701;28;20464;-70
2021/08/13 08:30:06;;;;;;;10.00;9.00;;;27.30;99.90;;;;;;5033470;28;20987;-70
2021/08/13 08:32:32;;;;;;;10.07;9.07;;;27.20;99.90;;;;;;5033674;28;20878;-70
2021/08/13 08:35:01;;;;;;;10.90;9.47;;;27.30;99.90;;;;;;5033436;28;20529;-71
2021/08/13 08:37:28;;;;;;;11.00;9.90;;;27.40;99.90;;;;;;5033632;28;20453;-70
2021/08/13 08:39:55;;;;;;;12.33;10.00;;;27.30;99.90;;;;;;5033314;28;20459;-70
2021/08/13 08:42:23;;;;;;;10.30;9.20;;;27.20;99.90;;;;;;5033656;28;20467;-71
2021/08/13 08:44:50;;;;;;;10.10;8.33;;;27.20;99.90;;;;;;5033300;28;20440;-70
2021/08/13 08:47:19;;;;;;;11.00;9.87;;;27.00;99.90;;;;;;5033202;28;20446;-70
2021/08/13 08:49:50;;;;;;;11.57;10.37;;;26.70;99.90;;;;;;5033356;28;20545;-70
2021/08/13 08:52:18;;;;;;;12.00;9.83;;;26.40;99.90;;;;;;5033764;28;20446;-70
2021/08/13 08:54:47;;;;;;;9.57;8.53;;;26.10;99.90;;;;;;5033117;28;20447;-70
2021/08/13 08:57:14;;;;;;;9.27;8.40;;;26.00;99.90;;;;;;5035617;28;20446;-70
2021/08/13 08:59:42;;;;;;;10.87;8.40;;;26.20;99.90;;;;;;5037295;28;20470;-70
2021/08/13 09:02:09;;;;;;;9.67;8.67;;;26.40;99.90;;;;;;5037406;28;20445;-70
2021/08/13 09:04:36;;;;;;;10.57;9.47;;;26.60;99.90;;;;;;5037363;28;20447;-70
2021/08/13 09:07:03;;;;;;;8.80;7.80;;;26.90;99.90;;;;;;5037113;28;20533;-70
2021/08/13 09:09:30;;;;;;;11.50;8.03;;;27.30;99.90;;;;;;5037229;28;20816;-70
2021/08/13 09:11:57;;;;;;;9.90;8.90;;;28.30;99.90;;;;;;5037230;28;20574;-70
2021/08/13 09:14:40;;;;;;;9.70;8.80;;;29.70;97.70;;;;;;5037062;28;20441;-70
2021/08/13 09:17:12;;;;;;;8.70;7.77;;;30.70;94.70;;;;;;5037047;28;20468;-71
2021/08/13 09:19:41;;;;;;;9.23;8.20;;;32.30;92.00;;;;;;5037036;28;20501;-70
2021/08/13 09:22:09;;;;;;;8.87;7.97;;;33.20;86.50;;;;;;5037179;28;20509;-71
2021/08/13 09:24:38;;;;;;;8.60;7.80;;;33.80;82.20;;;;;;5036956;28;20449;-71
2021/08/13 09:27:19;;;;;;;8.73;7.93;;;34.40;78.30;;;;;;5036776;28;20449;-71
2021/08/13 09:30:10;;;;;;;8.53;7.73;;;35.00;73.20;;;;;;5036545;28;20454;-71
2021/08/13 09:32:39;;;;;;;8.40;7.70;;;34.90;70.00;;;;;;5036922;28;20456;-71
2021/08/13 09:35:07;;;;;;;8.60;7.80;;;35.40;69.30;;;;;;5036607;28;20473;-71
2021/08/13 09:37:34;;;;;;;8.67;7.83;;;36.10;64.90;;;;;;5036583;28;20450;-71
2021/08/13 09:40:01;;;;;;;8.50;7.70;;;36.00;63.20;;;;;;5036770;28;20471;-71
2021/08/13 09:42:35;;;;;;;8.00;7.30;;;36.50;63.90;;;;;;5036680;28;20466;-71
2021/08/13 09:45:05;;;;;;;7.60;6.90;;;37.00;59.50;;;;;;5036461;28;20447;-71
2021/08/13 09:47:41;;;;;;;8.50;7.70;;;37.10;59.00;;;;;;5036463;28;20934;-71
2021/08/13 09:50:09;;;;;;;9.00;7.50;;;36.10;60.00;;;;;;5036838;28;20501;-71
2021/08/13 09:52:36;;;;;;;8.17;7.40;;;35.80;60.90;;;;;;5036848;28;20530;-71
2021/08/13 09:55:08;;;;;;;8.73;7.93;;;35.60;63.10;;;;;;5036284;28;20449;-71
2021/08/13 09:57:40;;;;;;;8.00;7.27;;;35.80;61.20;;;;;;5036458;28;20469;-71
2021/08/13 10:00:09;;;;;;;7.50;6.80;;;36.80;60.20;;;;;;5036350;28;20540;-71
2021/08/13 10:02:38;;;;;;;8.10;7.40;;;37.60;59.20;;;;;;5036374;28;20435;-71
2021/08/13 10:05:17;;;;;;;7.50;6.90;;;38.90;55.20;;;;;;5036148;28;20451;-71
2021/08/13 10:07:49;;;;;;;7.43;6.83;;;39.90;52.60;;;;;;5036172;28;20443;-72
2021/08/13 10:10:17;;;;;;;8.10;7.30;;;40.20;50.30;;;;;;5035950;28;20473;-71
2021/08/13 10:12:45;;;;;;;7.90;7.23;;;39.50;51.10;;;;;;5036139;28;20439;-71
2021/08/13 10:15:12;;;;;;;8.10;7.40;;;39.20;52.90;;;;;;5036036;28;20526;-72
2021/08/13 10:17:40;;;;;;;8.40;7.67;;;39.10;51.70;;;;;;5035834;28;20459;-71
2021/08/13 10:20:09;;;;;;;7.80;7.17;;;38.90;52.20;;;;;;5035925;28;20466;-71
2021/08/13 10:22:36;;;;;;;8.27;7.57;;;37.90;53.10;;;;;;5036050;28;20443;-71
2021/08/13 10:25:04;;;;;;;8.00;7.23;;;37.30;54.70;;;;;;5035681;28;20820;-71
2021/08/13 10:27:32;;;;;;;8.60;7.90;;;37.50;55.00;;;;;;5035916;28;20450;-71
2021/08/13 10:29:59;;;;;;;8.23;7.50;;;37.10;54.20;;;;;;5035792;28;20466;-71
2021/08/13 10:32:28;;;;;;;8.90;7.70;;;36.30;55.10;;;;;;5035505;28;20479;-71
2021/08/13 10:34:58;;;;;;;8.20;7.40;;;36.20;57.30;;;;;;5035453;28;20446;-71
2021/08/13 10:37:27;;;;;;;9.20;7.33;;;36.20;56.40;;;;;;5035548;28;20539;-71
2021/08/13 10:39:55;;;;;;;8.63;7.83;;;36.40;56.50;;;;;;5035620;28;20477;-71
2021/08/13 10:42:25;;;;;;;8.43;7.63;;;36.10;56.70;;;;;;5035301;28;20474;-71
2021/08/13 10:44:55;;;;;;;8.80;8.00;;;35.80;57.10;;;;;;5035381;28;20443;-71
2021/08/13 10:47:28;;;;;;;9.03;8.23;;;35.80;57.20;;;;;;5035520;28;20447;-71
2021/08/13 10:49:57;;;;;;;8.50;7.70;;;35.90;57.00;;;;;;5035168;28;20557;-71
2021/08/13 10:52:35;;;;;;;8.93;8.13;;;35.50;58.00;;;;;;5035450;28;20493;-71
2021/08/13 10:55:05;;;;;;;9.20;8.40;;;35.50;57.90;;;;;;5035176;28;20461;-71
2021/08/13 10:57:55;;;;;;;8.93;8.20;;;35.00;59.30;;;;;;5035205;28;21020;-71
2021/08/13 11:00:22;;;;;;;9.27;7.90;;;35.10;59.90;;;;;;5035178;28;20470;-71
2021/08/13 11:03:18;;;;;;;8.53;7.73;;;35.60;59.20;;;;;;5035213;28;20529;-71
2021/08/13 11:05:53;;;;;;;7.90;7.20;;;35.60;58.90;;;;;;5034725;28;20454;-71
2021/08/13 11:08:21;;;;;;;8.43;7.73;;;35.70;58.60;;;;;;5035116;28;20778;-71
2021/08/13 11:10:57;;;;;;;10.93;8.03;;;35.70;57.60;;;;;;5034681;28;20486;-71
2021/08/13 11:13:25;;;;;;;8.60;7.70;;;35.50;58.60;;;;;;5035052;28;20453;-71
2021/08/13 11:15:54;;;;;;;8.30;7.50;;;35.10;59.30;;;;;;5034621;28;20860;-72
2021/08/13 11:18:32;;;;;;;8.83;8.03;;;35.20;60.80;;;;;;5034889;28;20859;-71
2021/08/13 11:20:59;;;;;;;8.47;7.73;;;35.00;59.70;;;;;;5033882;28;20863;-71
2021/08/13 11:23:28;;;;;;;9.00;8.23;;;34.50;61.90;;;;;;5034710;28;20447;-71
2021/08/13 11:25:56;;;;;;;8.47;7.70;;;33.80;61.60;;;;;;5034760;28;20569;-70
2021/08/13 11:28:24;;;;;;;9.00;8.10;;;33.10;65.30;;;;;;5034613;28;20446;-71
2021/08/13 11:30:53;;;;;;;9.10;8.30;;;32.80;66.70;;;;;;5034547;28;20594;-71
2021/08/13 11:33:40;;;;;;;8.67;7.80;;;32.60;67.80;;;;;;5034587;28;20445;-71
2021/08/13 11:36:07;;;;;;;8.57;7.87;;;32.30;68.70;;;;;;5034426;28;20848;-69
2021/08/13 11:39:00;;;;;;;8.03;7.23;;;31.90;72.60;;;;;;5034295;28;20445;-70
2021/08/13 11:41:28;;;;;;;8.87;7.97;;;31.60;72.40;;;;;;5034476;28;20473;-70
2021/08/13 11:43:57;;;;;;;8.53;7.73;;;31.40;74.10;;;;;;5034371;28;20445;-70
2021/08/13 11:46:26;;;;;;;8.63;7.83;;;31.30;74.70;;;;;;5033973;28;20452;-70
2021/08/13 11:48:55;;;;;;;8.73;7.83;;;31.30;76.20;;;;;;5033987;28;20530;-71
2021/08/13 11:51:25;;;;;;;9.33;8.43;;;31.30;75.80;;;;;;5034162;28;20486;-70
2021/08/13 11:53:52;;;;;;;9.20;8.30;;;31.30;79.30;;;;;;5034016;28;20453;-70
2021/08/13 11:56:28;;;;;;;8.30;7.50;;;31.30;75.80;;;;;;5033743;28;20829;-70
2021/08/13 11:59:00;;;;;;;8.97;8.10;;;31.20;77.30;;;;;;5034486;28;20455;-70
2021/08/13 12:01:27;;;;;;;9.93;8.93;;;31.00;76.20;;;;;;5033826;28;20940;-70
2021/08/13 12:03:54;;;;;;;9.90;8.93;;;30.70;79.20;;;;;;5034103;28;20447;-70
2021/08/13 12:06:21;;;;;;;8.80;8.00;;;30.70;78.70;;;;;;5033839;28;20438;-70
2021/08/13 12:08:49;;;;;;;8.40;7.67;;;30.70;80.90;;;;;;5033894;28;20805;-71
2021/08/13 12:11:22;;;;;;;9.93;8.87;;;31.00;80.30;;;;;;5033512;28;21057;-70
2021/08/13 12:13:51;;;;;;;9.10;7.90;;;30.90;77.80;;;;;;5033934;28;20537;-70
2021/08/13 12:16:19;;;;;;;8.43;7.57;;;31.00;80.60;;;;;;5033350;28;20552;-71
2021/08/13 12:18:47;;;;;;;8.73;7.77;;;31.20;79.50;;;;;;5033726;28;20442;-70
2021/08/13 12:21:15;;;;;;;9.53;8.60;;;31.20;80.30;;;;;;5033543;28;20466;-70
2021/08/13 12:23:55;;;;;;;9.10;8.20;;;31.20;80.20;;;;;;5033624;28;20453;-70
2021/08/13 12:26:28;;;;;;;8.70;7.90;;;31.00;79.90;;;;;;5033392;28;20925;-70
2021/08/13 12:28:56;;;;;;;9.17;8.27;;;31.00;83.20;;;;;;5033743;28;20533;-70
2021/08/13 12:31:23;;;;;;;8.70;7.90;;;31.10;81.40;;;;;;5033590;28;20565;-70
2021/08/13 12:33:55;;;;;;;8.83;8.03;;;31.20;80.00;;;;;;5033604;28;20450;-71
2021/08/13 12:36:22;;;;;;;8.77;7.90;;;31.20;81.40;;;;;;5033221;28;20447;-70
2021/08/13 12:38:55;;;;;;;8.67;7.87;;;31.20;81.30;;;;;;5033528;28;20449;-70
2021/08/13 12:41:22;;;;;;;9.03;8.00;;;30.90;80.90;;;;;;5033652;28;20485;-71
2021/08/13 12:43:49;;;;;;;9.80;8.90;;;30.70;83.00;;;;;;5033390;28;20449;-70
2021/08/13 12:46:18;;;;;;;9.00;7.90;;;30.50;84.50;;;;;;5033123;28;20864;-70
2021/08/13 12:48:45;;;;;;;9.00;8.10;;;30.40;86.50;;;;;;5033329;28;20453;-71
2021/08/13 12:51:26;;;;;;;8.63;7.60;;;30.50;85.70;;;;;;5033108;28;20478;-70